Mesita, Colorado
Current Conditions -  °F | °C
As of 9:52 AM on Sunday 21 Dec 2014 (Local Time) from KALS Reporting Station
Clear Clear  
Wind Chill: 21°   Ceiling: Unl
Heat Index: 26°   Visibility: 10mi
Dew Point: 19°   Wind: 5mph
Humidity: 75%   Direction: 120°ESE
Pressure: 29.94"   Gusts: NA
Location:  37.0838°N, 105.58°W
Report Text: KALS 211652Z AUTO 12004KT 10SM CLR M03/M07 A2994 RMK AO2 SLP165 T10331072
Loading
Personal Weather Stations






























Interactive Weather Map New forecast layout! Learn more

10-Day Weather Forecast

Advertisements
Track Severe Weather on mobile